HE39 weather

As Salihiyah Airport
Sharqia Governorate, Egypt

Public forecast

Using degrees Celsius for public forecast. Weather courtesy of forecast.io.

METAR (pilot weather report)

Closest report is Port Said Airport, 30.8 nm (57.0 km) NNE. Retrieved 2019/05/22 18:00 UTC (7 minutes ago):

HEPS 221800Z 07009KT CAVOK 25/19 Q1013 NOSIG

TAF (pilot weather forecast)

Closest forecast is Port Said Airport, 30.8 nm (57.0 km) NNE. Retrieved 2019/05/22 18:09 UTC (0 seconds ago):

TAF HEPS 221700Z 2218/2324 06009KT CAVOK